sensor_id;sensor_type;location;lat;lon;timestamp;P1;durP1;ratioP1;P2;durP2;ratioP2
75843;SDS011;64492;51.270;3.912;2022-12-18T00:01:57;11.65;;;7.45;;
75843;SDS011;64492;51.270;3.912;2022-12-18T00:04:24;12.20;;;7.35;;
75843;SDS011;64492;51.270;3.912;2022-12-18T00:06:52;11.80;;;7.95;;
75843;SDS011;64492;51.270;3.912;2022-12-18T00:09:20;12.00;;;7.40;;
75843;SDS011;64492;51.270;3.912;2022-12-18T00:11:47;13.00;;;7.75;;
75843;SDS011;64492;51.270;3.912;2022-12-18T00:14:13;11.93;;;7.25;;
75843;SDS011;64492;51.270;3.912;2022-12-18T00:16:42;12.48;;;7.65;;
75843;SDS011;64492;51.270;3.912;2022-12-18T00:19:09;12.52;;;7.63;;
75843;SDS011;64492;51.270;3.912;2022-12-18T00:21:40;12.07;;;7.45;;
75843;SDS011;64492;51.270;3.912;2022-12-18T00:24:07;13.57;;;7.85;;
75843;SDS011;64492;51.270;3.912;2022-12-18T00:26:36;11.93;;;7.53;;
75843;SDS011;64492;51.270;3.912;2022-12-18T00:29:05;11.93;;;8.13;;
75843;SDS011;64492;51.270;3.912;2022-12-18T00:31:33;10.50;;;6.78;;
75843;SDS011;64492;51.270;3.912;2022-12-18T00:33:59;11.88;;;7.35;;
75843;SDS011;64492;51.270;3.912;2022-12-18T00:36:27;10.75;;;7.30;;
75843;SDS011;64492;51.270;3.912;2022-12-18T00:38:55;12.05;;;7.50;;
75843;SDS011;64492;51.270;3.912;2022-12-18T00:41:22;12.05;;;7.03;;
75843;SDS011;64492;51.270;3.912;2022-12-18T00:44:09;13.15;;;7.72;;
75843;SDS011;64492;51.270;3.912;2022-12-18T00:46:36;12.60;;;7.70;;
75843;SDS011;64492;51.270;3.912;2022-12-18T00:49:03;11.38;;;8.10;;
75843;SDS011;64492;51.270;3.912;2022-12-18T00:51:29;11.60;;;6.72;;
75843;SDS011;64492;51.270;3.912;2022-12-18T00:53:56;14.13;;;7.63;;
75843;SDS011;64492;51.270;3.912;2022-12-18T00:56:22;11.95;;;7.47;;
75843;SDS011;64492;51.270;3.912;2022-12-18T00:58:49;12.60;;;7.90;;
75843;SDS011;64492;51.270;3.912;2022-12-18T01:01:17;12.57;;;7.53;;
75843;SDS011;64492;51.270;3.912;2022-12-18T01:03:44;12.98;;;7.80;;
75843;SDS011;64492;51.270;3.912;2022-12-18T01:06:12;11.98;;;7.10;;
75843;SDS011;64492;51.270;3.912;2022-12-18T01:08:39;12.85;;;7.55;;
75843;SDS011;64492;51.270;3.912;2022-12-18T01:11:06;12.15;;;7.43;;
75843;SDS011;64492;51.270;3.912;2022-12-18T01:13:34;11.73;;;7.28;;
75843;SDS011;64492;51.270;3.912;2022-12-18T01:16:00;12.38;;;7.55;;
75843;SDS011;64492;51.270;3.912;2022-12-18T01:18:28;12.02;;;7.75;;
75843;SDS011;64492;51.270;3.912;2022-12-18T01:20:55;13.88;;;7.70;;
75843;SDS011;64492;51.270;3.912;2022-12-18T01:23:21;13.52;;;8.35;;
75843;SDS011;64492;51.270;3.912;2022-12-18T01:25:47;11.88;;;7.57;;
75843;SDS011;64492;51.270;3.912;2022-12-18T01:28:14;14.15;;;7.93;;
75843;SDS011;64492;51.270;3.912;2022-12-18T01:30:41;12.73;;;7.40;;
75843;SDS011;64492;51.270;3.912;2022-12-18T01:33:07;15.15;;;8.25;;
75843;SDS011;64492;51.270;3.912;2022-12-18T01:35:39;15.70;;;8.52;;
75843;SDS011;64492;51.270;3.912;2022-12-18T01:38:06;12.88;;;7.63;;
75843;SDS011;64492;51.270;3.912;2022-12-18T01:40:32;12.27;;;7.68;;
75843;SDS011;64492;51.270;3.912;2022-12-18T01:42:59;11.75;;;6.95;;
75843;SDS011;64492;51.270;3.912;2022-12-18T01:45:26;14.65;;;7.68;;
75843;SDS011;64492;51.270;3.912;2022-12-18T01:47:54;13.93;;;7.97;;
75843;SDS011;64492;51.270;3.912;2022-12-18T01:50:23;13.77;;;8.02;;
75843;SDS011;64492;51.270;3.912;2022-12-18T01:52:54;15.63;;;7.80;;
75843;SDS011;64492;51.270;3.912;2022-12-18T01:55:23;13.13;;;7.60;;
75843;SDS011;64492;51.270;3.912;2022-12-18T01:57:52;13.75;;;8.57;;
75843;SDS011;64492;51.270;3.912;2022-12-18T02:02:47;11.00;;;7.22;;
75843;SDS011;64492;51.270;3.912;2022-12-18T02:05:15;12.48;;;7.60;;
75843;SDS011;64492;51.270;3.912;2022-12-18T02:07:45;13.45;;;8.20;;
75843;SDS011;64492;51.270;3.912;2022-12-18T02:10:19;13.80;;;7.82;;
75843;SDS011;64492;51.270;3.912;2022-12-18T02:12:51;14.98;;;7.80;;
75843;SDS011;64492;51.270;3.912;2022-12-18T02:15:23;14.70;;;8.13;;
75843;SDS011;64492;51.270;3.912;2022-12-18T02:17:54;13.20;;;7.65;;
75843;SDS011;64492;51.270;3.912;2022-12-18T02:20:23;12.93;;;7.85;;
75843;SDS011;64492;51.270;3.912;2022-12-18T02:23:00;14.60;;;8.95;;
75843;SDS011;64492;51.270;3.912;2022-12-18T02:25:51;11.07;;;6.70;;
75843;SDS011;64492;51.270;3.912;2022-12-18T02:28:22;15.73;;;8.23;;
75843;SDS011;64492;51.270;3.912;2022-12-18T02:30:51;16.00;;;8.07;;
75843;SDS011;64492;51.270;3.912;2022-12-18T02:33:19;14.77;;;7.93;;
75843;SDS011;64492;51.270;3.912;2022-12-18T02:35:47;13.02;;;7.72;;
75843;SDS011;64492;51.270;3.912;2022-12-18T02:38:14;14.20;;;8.48;;
75843;SDS011;64492;51.270;3.912;2022-12-18T02:40:41;13.80;;;7.82;;
75843;SDS011;64492;51.270;3.912;2022-12-18T02:43:10;13.57;;;8.07;;
75843;SDS011;64492;51.270;3.912;2022-12-18T02:45:46;13.45;;;8.18;;
75843;SDS011;64492;51.270;3.912;2022-12-18T02:48:13;14.07;;;8.15;;
75843;SDS011;64492;51.270;3.912;2022-12-18T02:50:41;13.13;;;7.47;;
75843;SDS011;64492;51.270;3.912;2022-12-18T02:53:14;11.90;;;7.50;;
75843;SDS011;64492;51.270;3.912;2022-12-18T02:55:47;12.32;;;7.60;;
75843;SDS011;64492;51.270;3.912;2022-12-18T02:58:24;13.05;;;7.35;;
75843;SDS011;64492;51.270;3.912;2022-12-18T03:03:24;11.98;;;7.13;;
75843;SDS011;64492;51.270;3.912;2022-12-18T03:05:52;13.85;;;8.48;;
75843;SDS011;64492;51.270;3.912;2022-12-18T03:08:22;12.40;;;6.95;;
75843;SDS011;64492;51.270;3.912;2022-12-18T03:10:50;13.73;;;8.35;;
75843;SDS011;64492;51.270;3.912;2022-12-18T03:13:25;13.85;;;7.65;;
75843;SDS011;64492;51.270;3.912;2022-12-18T03:15:53;13.18;;;7.85;;
75843;SDS011;64492;51.270;3.912;2022-12-18T03:18:21;12.02;;;7.72;;
75843;SDS011;64492;51.270;3.912;2022-12-18T03:20:52;13.63;;;7.95;;
75843;SDS011;64492;51.270;3.912;2022-12-18T03:23:21;11.25;;;7.43;;
75843;SDS011;64492;51.270;3.912;2022-12-18T03:25:50;13.45;;;7.60;;
75843;SDS011;64492;51.270;3.912;2022-12-18T03:28:19;12.43;;;7.95;;
75843;SDS011;64492;51.270;3.912;2022-12-18T03:30:49;12.30;;;7.60;;
75843;SDS011;64492;51.270;3.912;2022-12-18T03:33:19;13.05;;;7.47;;
75843;SDS011;64492;51.270;3.912;2022-12-18T03:35:47;10.80;;;7.30;;
75843;SDS011;64492;51.270;3.912;2022-12-18T03:38:14;10.98;;;7.25;;
75843;SDS011;64492;51.270;3.912;2022-12-18T03:40:43;14.07;;;7.63;;
75843;SDS011;64492;51.270;3.912;2022-12-18T03:43:16;12.77;;;7.47;;
75843;SDS011;64492;51.270;3.912;2022-12-18T03:45:46;14.13;;;7.15;;
75843;SDS011;64492;51.270;3.912;2022-12-18T03:48:17;11.80;;;7.53;;
75843;SDS011;64492;51.270;3.912;2022-12-18T03:50:48;12.38;;;7.20;;
75843;SDS011;64492;51.270;3.912;2022-12-18T03:53:21;12.57;;;7.05;;
75843;SDS011;64492;51.270;3.912;2022-12-18T03:55:52;12.52;;;7.30;;
75843;SDS011;64492;51.270;3.912;2022-12-18T03:58:20;11.05;;;6.75;;
75843;SDS011;64492;51.270;3.912;2022-12-18T04:00:47;12.00;;;7.28;;
75843;SDS011;64492;51.270;3.912;2022-12-18T04:03:17;11.63;;;6.72;;
75843;SDS011;64492;51.270;3.912;2022-12-18T04:05:46;10.88;;;6.93;;
75843;SDS011;64492;51.270;3.912;2022-12-18T04:08:14;12.43;;;7.22;;
75843;SDS011;64492;51.270;3.912;2022-12-18T04:10:40;12.98;;;6.90;;
75843;SDS011;64492;51.270;3.912;2022-12-18T04:13:08;12.35;;;7.30;;
75843;SDS011;64492;51.270;3.912;2022-12-18T04:15:35;10.40;;;5.85;;
75843;SDS011;64492;51.270;3.912;2022-12-18T04:18:04;12.45;;;7.30;;
75843;SDS011;64492;51.270;3.912;2022-12-18T04:20:30;12.30;;;7.18;;
75843;SDS011;64492;51.270;3.912;2022-12-18T04:22:57;10.43;;;6.32;;
75843;SDS011;64492;51.270;3.912;2022-12-18T04:25:23;12.32;;;6.82;;
75843;SDS011;64492;51.270;3.912;2022-12-18T04:27:50;11.18;;;7.20;;
75843;SDS011;64492;51.270;3.912;2022-12-18T04:30:16;10.70;;;6.80;;
75843;SDS011;64492;51.270;3.912;2022-12-18T04:32:43;11.75;;;6.85;;
75843;SDS011;64492;51.270;3.912;2022-12-18T04:35:11;11.35;;;6.72;;
75843;SDS011;64492;51.270;3.912;2022-12-18T04:37:37;11.77;;;7.10;;
75843;SDS011;64492;51.270;3.912;2022-12-18T04:40:04;9.88;;;6.82;;
75843;SDS011;64492;51.270;3.912;2022-12-18T04:42:31;9.48;;;6.57;;
75843;SDS011;64492;51.270;3.912;2022-12-18T04:44:58;10.60;;;6.25;;
75843;SDS011;64492;51.270;3.912;2022-12-18T04:47:24;9.80;;;6.20;;
75843;SDS011;64492;51.270;3.912;2022-12-18T04:49:51;11.27;;;6.90;;
75843;SDS011;64492;51.270;3.912;2022-12-18T04:52:19;10.80;;;6.95;;
75843;SDS011;64492;51.270;3.912;2022-12-18T04:54:45;11.65;;;7.18;;
75843;SDS011;64492;51.270;3.912;2022-12-18T04:57:12;12.23;;;6.75;;
75843;SDS011;64492;51.270;3.912;2022-12-18T04:59:38;11.10;;;6.82;;
75843;SDS011;64492;51.270;3.912;2022-12-18T05:02:05;10.02;;;6.88;;
75843;SDS011;64492;51.270;3.912;2022-12-18T05:04:31;9.65;;;6.45;;
75843;SDS011;64492;51.270;3.912;2022-12-18T05:06:58;11.10;;;6.50;;
75843;SDS011;64492;51.270;3.912;2022-12-18T05:09:25;9.85;;;6.55;;
75843;SDS011;64492;51.270;3.912;2022-12-18T05:11:52;10.48;;;6.28;;
75843;SDS011;64492;51.270;3.912;2022-12-18T05:14:19;8.32;;;6.20;;
75843;SDS011;64492;51.270;3.912;2022-12-18T05:16:45;9.70;;;6.22;;
75843;SDS011;64492;51.270;3.912;2022-12-18T05:19:12;9.90;;;6.43;;
75843;SDS011;64492;51.270;3.912;2022-12-18T05:21:38;11.88;;;7.25;;
75843;SDS011;64492;51.270;3.912;2022-12-18T05:24:05;8.63;;;5.78;;
75843;SDS011;64492;51.270;3.912;2022-12-18T05:26:34;9.10;;;6.00;;
75843;SDS011;64492;51.270;3.912;2022-12-18T05:29:00;9.50;;;6.18;;
75843;SDS011;64492;51.270;3.912;2022-12-18T05:31:27;10.98;;;6.32;;
75843;SDS011;64492;51.270;3.912;2022-12-18T05:33:53;10.05;;;6.00;;
75843;SDS011;64492;51.270;3.912;2022-12-18T05:36:20;9.32;;;5.93;;
75843;SDS011;64492;51.270;3.912;2022-12-18T05:38:46;8.52;;;5.60;;
75843;SDS011;64492;51.270;3.912;2022-12-18T05:41:13;9.70;;;6.10;;
75843;SDS011;64492;51.270;3.912;2022-12-18T05:43:40;10.30;;;5.85;;
75843;SDS011;64492;51.270;3.912;2022-12-18T05:46:08;9.70;;;6.00;;
75843;SDS011;64492;51.270;3.912;2022-12-18T05:48:37;10.48;;;6.32;;
75843;SDS011;64492;51.270;3.912;2022-12-18T05:51:05;8.77;;;5.63;;
75843;SDS011;64492;51.270;3.912;2022-12-18T05:53:32;9.48;;;6.10;;
75843;SDS011;64492;51.270;3.912;2022-12-18T05:56:00;8.60;;;5.95;;
75843;SDS011;64492;51.270;3.912;2022-12-18T05:58:27;8.30;;;5.55;;
75843;SDS011;64492;51.270;3.912;2022-12-18T06:00:55;8.32;;;5.72;;
75843;SDS011;64492;51.270;3.912;2022-12-18T06:03:22;9.52;;;5.50;;
75843;SDS011;64492;51.270;3.912;2022-12-18T06:05:48;8.63;;;5.57;;
75843;SDS011;64492;51.270;3.912;2022-12-18T06:08:15;8.73;;;5.95;;
75843;SDS011;64492;51.270;3.912;2022-12-18T06:10:41;9.38;;;6.03;;
75843;SDS011;64492;51.270;3.912;2022-12-18T06:13:08;7.93;;;5.18;;
75843;SDS011;64492;51.270;3.912;2022-12-18T06:15:35;8.10;;;5.45;;
75843;SDS011;64492;51.270;3.912;2022-12-18T06:18:04;8.55;;;5.65;;
75843;SDS011;64492;51.270;3.912;2022-12-18T06:20:30;8.00;;;5.57;;
75843;SDS011;64492;51.270;3.912;2022-12-18T06:22:57;10.40;;;6.53;;
75843;SDS011;64492;51.270;3.912;2022-12-18T06:25:23;8.60;;;5.82;;
75843;SDS011;64492;51.270;3.912;2022-12-18T06:27:50;8.05;;;5.53;;
75843;SDS011;64492;51.270;3.912;2022-12-18T06:30:16;8.13;;;5.55;;
75843;SDS011;64492;51.270;3.912;2022-12-18T06:32:43;9.02;;;5.68;;
75843;SDS011;64492;51.270;3.912;2022-12-18T06:35:11;8.27;;;5.78;;
75843;SDS011;64492;51.270;3.912;2022-12-18T06:37:37;8.43;;;5.70;;
75843;SDS011;64492;51.270;3.912;2022-12-18T06:40:04;8.38;;;5.80;;
75843;SDS011;64492;51.270;3.912;2022-12-18T06:42:31;8.60;;;5.00;;
75843;SDS011;64492;51.270;3.912;2022-12-18T06:44:58;10.20;;;5.78;;
75843;SDS011;64492;51.270;3.912;2022-12-18T06:47:24;9.18;;;6.60;;
75843;SDS011;64492;51.270;3.912;2022-12-18T06:49:51;8.18;;;5.25;;
75843;SDS011;64492;51.270;3.912;2022-12-18T06:52:19;9.45;;;6.10;;
75843;SDS011;64492;51.270;3.912;2022-12-18T06:54:45;8.65;;;5.60;;
75843;SDS011;64492;51.270;3.912;2022-12-18T06:57:12;7.35;;;5.00;;
75843;SDS011;64492;51.270;3.912;2022-12-18T06:59:38;8.52;;;5.10;;
75843;SDS011;64492;51.270;3.912;2022-12-18T07:02:05;8.88;;;5.70;;
75843;SDS011;64492;51.270;3.912;2022-12-18T07:04:31;9.13;;;5.70;;
75843;SDS011;64492;51.270;3.912;2022-12-18T07:06:58;8.50;;;5.75;;
75843;SDS011;64492;51.270;3.912;2022-12-18T07:09:26;7.20;;;4.63;;
75843;SDS011;64492;51.270;3.912;2022-12-18T07:11:52;8.63;;;5.50;;
75843;SDS011;64492;51.270;3.912;2022-12-18T07:14:19;7.43;;;5.30;;
75843;SDS011;64492;51.270;3.912;2022-12-18T07:16:45;7.07;;;4.70;;
75843;SDS011;64492;51.270;3.912;2022-12-18T07:19:12;8.23;;;5.55;;
75843;SDS011;64492;51.270;3.912;2022-12-18T07:21:38;8.15;;;5.15;;
75843;SDS011;64492;51.270;3.912;2022-12-18T07:24:05;7.75;;;5.30;;
75843;SDS011;64492;51.270;3.912;2022-12-18T07:26:34;8.48;;;5.00;;
75843;SDS011;64492;51.270;3.912;2022-12-18T07:29:00;7.97;;;5.55;;
75843;SDS011;64492;51.270;3.912;2022-12-18T07:31:27;7.20;;;4.95;;
75843;SDS011;64492;51.270;3.912;2022-12-18T07:33:53;7.30;;;4.90;;
75843;SDS011;64492;51.270;3.912;2022-12-18T07:36:20;6.82;;;4.35;;
75843;SDS011;64492;51.270;3.912;2022-12-18T07:38:49;7.75;;;5.50;;
75843;SDS011;64492;51.270;3.912;2022-12-18T07:41:17;8.65;;;4.88;;
75843;SDS011;64492;51.270;3.912;2022-12-18T07:43:46;7.68;;;5.28;;
75843;SDS011;64492;51.270;3.912;2022-12-18T07:46:13;7.20;;;4.97;;
75843;SDS011;64492;51.270;3.912;2022-12-18T07:48:40;8.32;;;5.38;;
75843;SDS011;64492;51.270;3.912;2022-12-18T07:51:07;7.45;;;4.80;;
75843;SDS011;64492;51.270;3.912;2022-12-18T07:53:35;7.40;;;4.78;;
75843;SDS011;64492;51.270;3.912;2022-12-18T07:56:03;9.25;;;5.53;;
75843;SDS011;64492;51.270;3.912;2022-12-18T07:58:31;7.05;;;4.70;;
75843;SDS011;64492;51.270;3.912;2022-12-18T08:01:03;6.93;;;4.88;;
75843;SDS011;64492;51.270;3.912;2022-12-18T08:03:30;7.28;;;5.07;;
75843;SDS011;64492;51.270;3.912;2022-12-18T08:05:58;6.00;;;4.07;;
75843;SDS011;64492;51.270;3.912;2022-12-18T08:10:51;7.38;;;4.45;;
75843;SDS011;64492;51.270;3.912;2022-12-18T08:13:18;7.80;;;4.95;;
75843;SDS011;64492;51.270;3.912;2022-12-18T08:15:44;8.48;;;4.60;;
75843;SDS011;64492;51.270;3.912;2022-12-18T08:18:12;6.25;;;4.40;;
75843;SDS011;64492;51.270;3.912;2022-12-18T08:20:38;8.15;;;5.00;;
75843;SDS011;64492;51.270;3.912;2022-12-18T08:23:08;8.38;;;5.00;;
75843;SDS011;64492;51.270;3.912;2022-12-18T08:25:35;8.43;;;5.82;;
75843;SDS011;64492;51.270;3.912;2022-12-18T08:28:01;6.20;;;4.75;;
75843;SDS011;64492;51.270;3.912;2022-12-18T08:30:28;9.10;;;4.70;;
75843;SDS011;64492;51.270;3.912;2022-12-18T08:32:54;7.80;;;4.88;;
75843;SDS011;64492;51.270;3.912;2022-12-18T08:35:22;7.93;;;4.88;;
75843;SDS011;64492;51.270;3.912;2022-12-18T08:37:48;7.97;;;5.07;;
75843;SDS011;64492;51.270;3.912;2022-12-18T08:40:15;8.13;;;5.10;;
75843;SDS011;64492;51.270;3.912;2022-12-18T08:42:42;7.55;;;4.70;;
75843;SDS011;64492;51.270;3.912;2022-12-18T08:45:26;9.48;;;5.20;;
75843;SDS011;64492;51.270;3.912;2022-12-18T08:47:52;8.73;;;4.70;;
75843;SDS011;64492;51.270;3.912;2022-12-18T08:50:18;6.35;;;4.63;;
75843;SDS011;64492;51.270;3.912;2022-12-18T08:52:46;6.82;;;4.70;;
75843;SDS011;64492;51.270;3.912;2022-12-18T08:55:13;6.53;;;4.80;;
75843;SDS011;64492;51.270;3.912;2022-12-18T08:57:39;7.75;;;4.28;;
75843;SDS011;64492;51.270;3.912;2022-12-18T09:00:06;6.88;;;4.55;;
75843;SDS011;64492;51.270;3.912;2022-12-18T09:02:34;6.63;;;4.45;;
75843;SDS011;64492;51.270;3.912;2022-12-18T09:05:00;6.05;;;3.72;;
75843;SDS011;64492;51.270;3.912;2022-12-18T09:07:27;5.82;;;4.00;;
75843;SDS011;64492;51.270;3.912;2022-12-18T09:09:55;9.88;;;4.25;;
75843;SDS011;64492;51.270;3.912;2022-12-18T09:12:21;7.47;;;4.43;;
75843;SDS011;64492;51.270;3.912;2022-12-18T09:14:48;6.95;;;4.88;;
75843;SDS011;64492;51.270;3.912;2022-12-18T09:17:14;6.35;;;4.28;;
75843;SDS011;64492;51.270;3.912;2022-12-18T09:19:41;5.55;;;3.90;;
75843;SDS011;64492;51.270;3.912;2022-12-18T09:22:08;6.25;;;4.07;;
75843;SDS011;64492;51.270;3.912;2022-12-18T09:24:35;6.80;;;4.60;;
75843;SDS011;64492;51.270;3.912;2022-12-18T09:27:03;5.55;;;3.85;;
75843;SDS011;64492;51.270;3.912;2022-12-18T09:29:29;6.65;;;4.78;;
75843;SDS011;64492;51.270;3.912;2022-12-18T09:31:56;6.03;;;4.30;;
75843;SDS011;64492;51.270;3.912;2022-12-18T09:34:22;8.07;;;5.10;;
75843;SDS011;64492;51.270;3.912;2022-12-18T09:36:49;7.57;;;4.80;;
75843;SDS011;64492;51.270;3.912;2022-12-18T09:39:16;6.47;;;4.63;;
75843;SDS011;64492;51.270;3.912;2022-12-18T09:41:43;7.72;;;4.60;;
75843;SDS011;64492;51.270;3.912;2022-12-18T09:44:18;5.95;;;4.20;;
75843;SDS011;64492;51.270;3.912;2022-12-18T09:46:48;5.57;;;3.88;;
75843;SDS011;64492;51.270;3.912;2022-12-18T09:49:19;5.65;;;4.05;;
75843;SDS011;64492;51.270;3.912;2022-12-18T09:51:50;5.68;;;4.53;;
75843;SDS011;64492;51.270;3.912;2022-12-18T09:54:18;6.65;;;3.95;;
75843;SDS011;64492;51.270;3.912;2022-12-18T09:56:46;5.80;;;3.72;;
75843;SDS011;64492;51.270;3.912;2022-12-18T09:59:16;6.00;;;4.45;;
75843;SDS011;64492;51.270;3.912;2022-12-18T10:01:47;6.43;;;3.85;;
75843;SDS011;64492;51.270;3.912;2022-12-18T10:04:13;6.20;;;3.70;;
75843;SDS011;64492;51.270;3.912;2022-12-18T10:06:42;7.45;;;4.15;;
75843;SDS011;64492;51.270;3.912;2022-12-18T10:09:12;6.13;;;4.22;;
75843;SDS011;64492;51.270;3.912;2022-12-18T10:11:47;5.97;;;3.95;;
75843;SDS011;64492;51.270;3.912;2022-12-18T10:14:18;5.28;;;3.97;;
75843;SDS011;64492;51.270;3.912;2022-12-18T10:16:52;6.68;;;4.13;;
75843;SDS011;64492;51.270;3.912;2022-12-18T10:19:28;5.78;;;3.85;;
75843;SDS011;64492;51.270;3.912;2022-12-18T10:22:03;6.50;;;4.60;;
75843;SDS011;64492;51.270;3.912;2022-12-18T10:24:38;6.32;;;3.72;;
75843;SDS011;64492;51.270;3.912;2022-12-18T10:27:11;5.80;;;4.10;;
75843;SDS011;64492;51.270;3.912;2022-12-18T10:29:44;4.60;;;3.05;;
75843;SDS011;64492;51.270;3.912;2022-12-18T10:32:13;6.47;;;4.55;;
75843;SDS011;64492;51.270;3.912;2022-12-18T10:34:40;6.65;;;4.13;;
75843;SDS011;64492;51.270;3.912;2022-12-18T10:37:09;6.75;;;4.47;;
75843;SDS011;64492;51.270;3.912;2022-12-18T10:39:40;5.75;;;4.15;;
75843;SDS011;64492;51.270;3.912;2022-12-18T10:42:09;6.68;;;4.25;;
75843;SDS011;64492;51.270;3.912;2022-12-18T10:44:36;6.70;;;4.43;;
75843;SDS011;64492;51.270;3.912;2022-12-18T10:47:04;6.43;;;4.50;;
75843;SDS011;64492;51.270;3.912;2022-12-18T10:49:33;7.00;;;4.20;;
75843;SDS011;64492;51.270;3.912;2022-12-18T10:52:04;5.22;;;3.55;;
75843;SDS011;64492;51.270;3.912;2022-12-18T10:54:32;6.82;;;4.20;;
75843;SDS011;64492;51.270;3.912;2022-12-18T10:57:13;8.18;;;4.72;;
75843;SDS011;64492;51.270;3.912;2022-12-18T10:59:49;7.82;;;4.60;;
75843;SDS011;64492;51.270;3.912;2022-12-18T11:02:25;6.63;;;4.32;;
75843;SDS011;64492;51.270;3.912;2022-12-18T11:04:53;7.57;;;5.00;;
75843;SDS011;64492;51.270;3.912;2022-12-18T11:07:19;7.38;;;5.22;;
75843;SDS011;64492;51.270;3.912;2022-12-18T11:09:46;6.63;;;4.22;;
75843;SDS011;64492;51.270;3.912;2022-12-18T11:12:25;8.57;;;5.25;;
75843;SDS011;64492;51.270;3.912;2022-12-18T11:14:55;6.90;;;4.75;;
75843;SDS011;64492;51.270;3.912;2022-12-18T11:17:27;7.13;;;4.05;;
75843;SDS011;64492;51.270;3.912;2022-12-18T11:19:55;8.50;;;5.07;;
75843;SDS011;64492;51.270;3.912;2022-12-18T11:22:23;7.40;;;4.70;;
75843;SDS011;64492;51.270;3.912;2022-12-18T11:24:53;7.18;;;4.88;;
75843;SDS011;64492;51.270;3.912;2022-12-18T11:27:21;9.38;;;5.40;;
75843;SDS011;64492;51.270;3.912;2022-12-18T11:29:49;7.40;;;5.25;;
75843;SDS011;64492;51.270;3.912;2022-12-18T11:32:22;7.68;;;4.80;;
75843;SDS011;64492;51.270;3.912;2022-12-18T11:34:55;7.28;;;4.25;;
75843;SDS011;64492;51.270;3.912;2022-12-18T11:37:25;9.00;;;5.55;;
75843;SDS011;64492;51.270;3.912;2022-12-18T11:39:54;7.53;;;4.63;;
75843;SDS011;64492;51.270;3.912;2022-12-18T11:42:24;6.72;;;4.43;;
75843;SDS011;64492;51.270;3.912;2022-12-18T11:44:54;7.32;;;4.82;;
75843;SDS011;64492;51.270;3.912;2022-12-18T11:47:26;6.55;;;4.38;;
75843;SDS011;64492;51.270;3.912;2022-12-18T11:49:55;6.07;;;4.50;;
75843;SDS011;64492;51.270;3.912;2022-12-18T11:52:26;11.23;;;4.82;;
75843;SDS011;64492;51.270;3.912;2022-12-18T11:54:55;9.20;;;5.05;;
75843;SDS011;64492;51.270;3.912;2022-12-18T11:57:27;8.10;;;5.00;;
75843;SDS011;64492;51.270;3.912;2022-12-18T12:00:01;7.47;;;4.20;;
75843;SDS011;64492;51.270;3.912;2022-12-18T12:02:41;7.53;;;4.78;;
75843;SDS011;64492;51.270;3.912;2022-12-18T12:05:17;9.25;;;5.00;;
75843;SDS011;64492;51.270;3.912;2022-12-18T12:07:52;8.38;;;4.32;;
75843;SDS011;64492;51.270;3.912;2022-12-18T12:10:25;10.07;;;4.80;;
75843;SDS011;64492;51.270;3.912;2022-12-18T12:12:59;6.72;;;4.63;;
75843;SDS011;64492;51.270;3.912;2022-12-18T12:15:38;5.47;;;3.95;;
75843;SDS011;64492;51.270;3.912;2022-12-18T12:18:16;9.50;;;4.80;;
75843;SDS011;64492;51.270;3.912;2022-12-18T12:20:49;8.80;;;4.82;;
75843;SDS011;64492;51.270;3.912;2022-12-18T12:23:23;8.77;;;4.60;;
75843;SDS011;64492;51.270;3.912;2022-12-18T12:25:57;9.25;;;5.40;;
75843;SDS011;64492;51.270;3.912;2022-12-18T12:28:31;7.53;;;4.82;;
75843;SDS011;64492;51.270;3.912;2022-12-18T12:31:10;7.53;;;5.03;;
75843;SDS011;64492;51.270;3.912;2022-12-18T12:33:46;5.45;;;4.20;;
75843;SDS011;64492;51.270;3.912;2022-12-18T12:36:19;6.97;;;4.40;;
75843;SDS011;64492;51.270;3.912;2022-12-18T12:38:49;6.93;;;4.60;;
75843;SDS011;64492;51.270;3.912;2022-12-18T12:41:18;7.15;;;4.82;;
75843;SDS011;64492;51.270;3.912;2022-12-18T12:44:05;7.50;;;4.80;;
75843;SDS011;64492;51.270;3.912;2022-12-18T12:46:35;8.05;;;4.97;;
75843;SDS011;64492;51.270;3.912;2022-12-18T12:49:07;8.65;;;5.18;;
75843;SDS011;64492;51.270;3.912;2022-12-18T12:51:38;8.32;;;4.93;;
75843;SDS011;64492;51.270;3.912;2022-12-18T12:54:06;7.35;;;4.78;;
75843;SDS011;64492;51.270;3.912;2022-12-18T12:56:39;5.72;;;4.60;;
75843;SDS011;64492;51.270;3.912;2022-12-18T12:59:11;6.97;;;4.63;;
75843;SDS011;64492;51.270;3.912;2022-12-18T13:01:40;9.88;;;5.30;;
75843;SDS011;64492;51.270;3.912;2022-12-18T13:04:18;7.28;;;5.15;;
75843;SDS011;64492;51.270;3.912;2022-12-18T13:09:16;7.63;;;5.25;;
75843;SDS011;64492;51.270;3.912;2022-12-18T13:11:43;8.77;;;4.90;;
75843;SDS011;64492;51.270;3.912;2022-12-18T13:14:29;8.10;;;5.40;;
75843;SDS011;64492;51.270;3.912;2022-12-18T13:17:17;6.32;;;4.50;;
75843;SDS011;64492;51.270;3.912;2022-12-18T13:22:40;5.72;;;4.35;;
75843;SDS011;64492;51.270;3.912;2022-12-18T13:25:28;6.65;;;4.43;;
75843;SDS011;64492;51.270;3.912;2022-12-18T13:27:59;6.28;;;4.22;;
75843;SDS011;64492;51.270;3.912;2022-12-18T13:30:44;4.75;;;3.47;;
75843;SDS011;64492;51.270;3.912;2022-12-18T13:33:36;6.10;;;4.18;;
75843;SDS011;64492;51.270;3.912;2022-12-18T13:39:20;6.22;;;4.47;;
75843;SDS011;64492;51.270;3.912;2022-12-18T13:41:49;6.88;;;4.32;;
75843;SDS011;64492;51.270;3.912;2022-12-18T13:44:22;7.07;;;5.07;;
75843;SDS011;64492;51.270;3.912;2022-12-18T13:46:51;7.78;;;5.47;;
75843;SDS011;64492;51.270;3.912;2022-12-18T13:49:20;8.95;;;5.47;;
75843;SDS011;64492;51.270;3.912;2022-12-18T13:51:50;8.32;;;5.47;;
75843;SDS011;64492;51.270;3.912;2022-12-18T13:54:18;7.13;;;4.88;;
75843;SDS011;64492;51.270;3.912;2022-12-18T13:56:47;8.18;;;5.50;;
75843;SDS011;64492;51.270;3.912;2022-12-18T13:59:16;9.05;;;5.22;;
75843;SDS011;64492;51.270;3.912;2022-12-18T14:01:45;7.03;;;4.35;;
75843;SDS011;64492;51.270;3.912;2022-12-18T14:04:17;7.95;;;5.30;;
75843;SDS011;64492;51.270;3.912;2022-12-18T14:06:51;7.35;;;5.05;;
75843;SDS011;64492;51.270;3.912;2022-12-18T14:09:19;8.32;;;5.32;;
75843;SDS011;64492;51.270;3.912;2022-12-18T14:11:49;8.60;;;5.18;;
75843;SDS011;64492;51.270;3.912;2022-12-18T14:14:16;7.45;;;5.53;;
75843;SDS011;64492;51.270;3.912;2022-12-18T14:16:43;9.15;;;5.75;;
75843;SDS011;64492;51.270;3.912;2022-12-18T14:19:12;9.98;;;5.43;;
75843;SDS011;64492;51.270;3.912;2022-12-18T14:21:40;7.63;;;5.47;;
75843;SDS011;64492;51.270;3.912;2022-12-18T14:24:14;9.45;;;5.30;;
75843;SDS011;64492;51.270;3.912;2022-12-18T14:26:41;7.35;;;5.15;;
75843;SDS011;64492;51.270;3.912;2022-12-18T14:29:18;8.25;;;5.82;;
75843;SDS011;64492;51.270;3.912;2022-12-18T14:32:05;10.32;;;5.97;;
75843;SDS011;64492;51.270;3.912;2022-12-18T14:34:33;9.07;;;5.38;;
75843;SDS011;64492;51.270;3.912;2022-12-18T14:36:59;6.57;;;5.05;;
75843;SDS011;64492;51.270;3.912;2022-12-18T14:39:27;7.75;;;5.43;;
75843;SDS011;64492;51.270;3.912;2022-12-18T14:41:54;7.53;;;5.57;;
75843;SDS011;64492;51.270;3.912;2022-12-18T14:44:20;8.05;;;5.80;;
75843;SDS011;64492;51.270;3.912;2022-12-18T14:46:48;8.88;;;6.28;;
75843;SDS011;64492;51.270;3.912;2022-12-18T14:49:19;10.05;;;5.85;;
75843;SDS011;64492;51.270;3.912;2022-12-18T14:51:48;8.57;;;5.55;;
75843;SDS011;64492;51.270;3.912;2022-12-18T14:54:16;7.80;;;5.68;;
75843;SDS011;64492;51.270;3.912;2022-12-18T14:56:46;8.65;;;6.35;;
75843;SDS011;64492;51.270;3.912;2022-12-18T14:59:14;8.20;;;5.80;;
75843;SDS011;64492;51.270;3.912;2022-12-18T15:01:44;8.35;;;5.28;;
75843;SDS011;64492;51.270;3.912;2022-12-18T15:04:23;8.90;;;5.80;;
75843;SDS011;64492;51.270;3.912;2022-12-18T15:07:02;9.52;;;6.03;;
75843;SDS011;64492;51.270;3.912;2022-12-18T15:09:34;8.00;;;5.28;;
75843;SDS011;64492;51.270;3.912;2022-12-18T15:12:02;9.75;;;6.30;;